(°C)
29°
28°
26°
25°
24°
23°
22°
(°C)
25°
24°
22°
21°
20°
19°
19°
Z
Z
Z
Z
Z
Z
Z
(km/u)
8-17
9-19
11-23
13-25
12-26
12-26
12-25
(mm)
0
0
0
0
0
0
0
(%)
0
0
0
0
0
0
0

Zonverhoging

/ 0.8°
sun-icon
UV 10
06:19
20:21
Afnemende maan (213°)
23:41
08:19

METAR voor South Carolina (KCUB)

Tijd Voorwaarden Temperatuur/
Dauwpunt
Wind Zicht Weer Wolken Luchtdruk Wijzigen Ruw
VFR 29.4°C / 13.9°C 170º 5kt >10km - Clear 1012 - KCUB 182353Z AUTO 17005KT 10SM CLR 29/14 A2990 RMK AO2 SLP123 T02940139 10333 20294 56012
VFR 31.1°C / 11.7°C 180º 6kt >10km - Clear 1012 - KCUB 182253Z AUTO 18006KT 10SM CLR 31/12 A2990 RMK AO2 SLP124 T03110117
VFR 32.2°C / 10.6°C 200º 7kt >10km - Clear 1012 - KCUB 182153Z AUTO 20007KT 10SM CLR 32/11 A2992 RMK AO2 SLP129 T03220106
VFR 32.2°C / 9.4°C 210º 4kt >10km - Clear 1013 - KCUB 182053Z AUTO 21004KT 10SM CLR 32/09 A2994 RMK AO2 SLP135 T03220094 56027
VFR 32.8°C / 10.6°C 170º 10kt >10km - Clear 1014 - KCUB 181953Z AUTO 17010KT 10SM CLR 33/11 A2996 RMK AO2 SLP142 T03280106
VFR 31.7°C / 10.6°C >10km - Clear 1015 - KCUB 181853Z AUTO 10SM CLR 32/11 A2998 RMK AO2 SLP151 T03170106
VFR 31.1°C / 11.1°C variable 4kt >10km - Clear 1016 - KCUB 181753Z AUTO VRB04KT 10SM CLR 31/11 A3002 RMK AO2 SLP162 T03110111 10317 20178 58021
VFR 30.6°C / 8.9°C 230º 5kt >10km - Clear 1017 - KCUB 181653Z AUTO 23005KT 10SM CLR 31/09 A3005 RMK AO2 SLP174 T03060089
VFR 29.4°C / 10°C variable 3kt >10km - Clear 1018 - KCUB 181553Z AUTO VRB03KT 10SM CLR 29/10 A3007 RMK AO2 SLP180 T02940100
VFR 28.3°C / 10°C variable 3kt >10km - Clear 1018 - KCUB 181453Z AUTO VRB03KT 10SM CLR 28/10 A3008 RMK AO2 SLP183 T02830100 53008
VFR 26.1°C / 12.2°C 270º 4kt >10km - Clear 1018 - KCUB 181353Z AUTO 27004KT 10SM CLR 26/12 A3007 RMK AO2 SLP181 T02610122
VFR 21.7°C / 13.3°C variable 0kt >10km - Clear 1017 - KCUB 181253Z AUTO 00000KT 10SM CLR 22/13 A3006 RMK AO2 SLP176 T02170133
VFR 17.8°C / 14.4°C variable 0kt >10km - Clear 1017 - KCUB 181153Z AUTO 00000KT 9SM CLR 18/14 A3006 RMK AO2 SLP175 T01780144 10178 20144 51011
VFR 15°C / 13.3°C variable 0kt >10km - Clear 1017 - KCUB 181053Z AUTO 00000KT 8SM CLR 15/13 A3005 RMK AO2 SLP174 T01500133
VFR 15°C / 12.8°C variable 0kt >10km - Clear 1016 - KCUB 180953Z AUTO 00000KT 10SM CLR 15/13 A3003 RMK AO2 SLP168 T01500128
VFR 15.6°C / 13.3°C variable 0kt >10km - Clear 1016 - KCUB 180853Z AUTO 00000KT 10SM CLR 16/13 A3002 RMK AO2 SLP164 T01560133 53001
VFR 16.1°C / 13.3°C variable 0kt >10km - Clear 1016 - KCUB 180753Z AUTO 00000KT 10SM CLR 16/13 A3001 RMK AO2 SLP160 T01610133
VFR 16.7°C / 13.9°C variable 0kt >10km - Clear 1016 - KCUB 180653Z AUTO 00000KT 10SM CLR 17/14 A3001 RMK AO2 SLP161 T01670139
VFR 17.2°C / 13.3°C variable 0kt >10km - Clear 1016 - KCUB 180553Z AUTO 00000KT 10SM CLR 17/13 A3002 RMK AO2 SLP163 T01720133 10283 20172 50000
VFR 18.3°C / 12.8°C variable 0kt >10km - Clear 1016 - KCUB 180453Z AUTO 00000KT 10SM CLR 18/13 A3003 RMK AO2 SLP166 T01830128 403060183
VFR 19.4°C / 12.8°C variable 0kt >10km - Clear 1016 - KCUB 180353Z AUTO 00000KT 10SM CLR 19/13 A3003 RMK AO2 SLP167 T01940128
VFR 20.6°C / 12.2°C variable 0kt >10km - Clear 1016 - KCUB 180253Z AUTO 00000KT 10SM CLR 21/12 A3002 RMK AO2 SLP162 T02060122 53017
VFR 21.7°C / 12.2°C variable 0kt >10km - Clear 1015 - KCUB 180153Z AUTO 00000KT 10SM CLR 22/12 A2999 RMK AO2 SLP154 T02170122
VFR 23.9°C / 11.1°C variable 0kt >10km - Clear 1014 - KCUB 180053Z AUTO 00000KT 10SM CLR 24/11 A2997 RMK AO2 SLP148 T02390111

VFR

29.4°C / 13.9°C

[Meer]
Wind 170º 5kt
Zicht >10km
Weer -
Wolken Clear
Luchtdruk 1012
Wijzigen -
Ruw KCUB 182353Z AUTO 17005KT 10SM CLR 29/14 A2990 RMK AO2 SLP123 T02940139 10333 20294 56012

VFR

31.1°C / 11.7°C

[Meer]
Wind 180º 6kt
Zicht >10km
Weer -
Wolken Clear
Luchtdruk 1012
Wijzigen -
Ruw KCUB 182253Z AUTO 18006KT 10SM CLR 31/12 A2990 RMK AO2 SLP124 T03110117

VFR

32.2°C / 10.6°C

[Meer]
Wind 200º 7kt
Zicht >10km
Weer -
Wolken Clear
Luchtdruk 1012
Wijzigen -
Ruw KCUB 182153Z AUTO 20007KT 10SM CLR 32/11 A2992 RMK AO2 SLP129 T03220106

VFR

32.2°C / 9.4°C

[Meer]
Wind 210º 4kt
Zicht >10km
Weer -
Wolken Clear
Luchtdruk 1013
Wijzigen -
Ruw KCUB 182053Z AUTO 21004KT 10SM CLR 32/09 A2994 RMK AO2 SLP135 T03220094 56027

VFR

32.8°C / 10.6°C

[Meer]
Wind 170º 10kt
Zicht >10km
Weer -
Wolken Clear
Luchtdruk 1014
Wijzigen -
Ruw KCUB 181953Z AUTO 17010KT 10SM CLR 33/11 A2996 RMK AO2 SLP142 T03280106

VFR

31.7°C / 10.6°C

[Meer]
Wind
Zicht >10km
Weer -
Wolken Clear
Luchtdruk 1015
Wijzigen -
Ruw KCUB 181853Z AUTO 10SM CLR 32/11 A2998 RMK AO2 SLP151 T03170106

VFR

31.1°C / 11.1°C

[Meer]
Wind variable 4kt
Zicht >10km
Weer -
Wolken Clear
Luchtdruk 1016
Wijzigen -
Ruw KCUB 181753Z AUTO VRB04KT 10SM CLR 31/11 A3002 RMK AO2 SLP162 T03110111 10317 20178 58021

VFR

30.6°C / 8.9°C

[Meer]
Wind 230º 5kt
Zicht >10km
Weer -
Wolken Clear
Luchtdruk 1017
Wijzigen -
Ruw KCUB 181653Z AUTO 23005KT 10SM CLR 31/09 A3005 RMK AO2 SLP174 T03060089

VFR

29.4°C / 10°C

[Meer]
Wind variable 3kt
Zicht >10km
Weer -
Wolken Clear
Luchtdruk 1018
Wijzigen -
Ruw KCUB 181553Z AUTO VRB03KT 10SM CLR 29/10 A3007 RMK AO2 SLP180 T02940100

VFR

28.3°C / 10°C

[Meer]
Wind variable 3kt
Zicht >10km
Weer -
Wolken Clear
Luchtdruk 1018
Wijzigen -
Ruw KCUB 181453Z AUTO VRB03KT 10SM CLR 28/10 A3008 RMK AO2 SLP183 T02830100 53008

VFR

26.1°C / 12.2°C

[Meer]
Wind 270º 4kt
Zicht >10km
Weer -
Wolken Clear
Luchtdruk 1018
Wijzigen -
Ruw KCUB 181353Z AUTO 27004KT 10SM CLR 26/12 A3007 RMK AO2 SLP181 T02610122

VFR

21.7°C / 13.3°C

[Meer]
Wind variable 0kt
Zicht >10km
Weer -
Wolken Clear
Luchtdruk 1017
Wijzigen -
Ruw KCUB 181253Z AUTO 00000KT 10SM CLR 22/13 A3006 RMK AO2 SLP176 T02170133

VFR

17.8°C / 14.4°C

[Meer]
Wind variable 0kt
Zicht >10km
Weer -
Wolken Clear
Luchtdruk 1017
Wijzigen -
Ruw KCUB 181153Z AUTO 00000KT 9SM CLR 18/14 A3006 RMK AO2 SLP175 T01780144 10178 20144 51011

VFR

15°C / 13.3°C

[Meer]
Wind variable 0kt
Zicht >10km
Weer -
Wolken Clear
Luchtdruk 1017
Wijzigen -
Ruw KCUB 181053Z AUTO 00000KT 8SM CLR 15/13 A3005 RMK AO2 SLP174 T01500133

VFR

15°C / 12.8°C

[Meer]
Wind variable 0kt
Zicht >10km
Weer -
Wolken Clear
Luchtdruk 1016
Wijzigen -
Ruw KCUB 180953Z AUTO 00000KT 10SM CLR 15/13 A3003 RMK AO2 SLP168 T01500128

VFR

15.6°C / 13.3°C

[Meer]
Wind variable 0kt
Zicht >10km
Weer -
Wolken Clear
Luchtdruk 1016
Wijzigen -
Ruw KCUB 180853Z AUTO 00000KT 10SM CLR 16/13 A3002 RMK AO2 SLP164 T01560133 53001

VFR

16.1°C / 13.3°C

[Meer]
Wind variable 0kt
Zicht >10km
Weer -
Wolken Clear
Luchtdruk 1016
Wijzigen -
Ruw KCUB 180753Z AUTO 00000KT 10SM CLR 16/13 A3001 RMK AO2 SLP160 T01610133

VFR

16.7°C / 13.9°C

[Meer]
Wind variable 0kt
Zicht >10km
Weer -
Wolken Clear
Luchtdruk 1016
Wijzigen -
Ruw KCUB 180653Z AUTO 00000KT 10SM CLR 17/14 A3001 RMK AO2 SLP161 T01670139

VFR

17.2°C / 13.3°C

[Meer]
Wind variable 0kt
Zicht >10km
Weer -
Wolken Clear
Luchtdruk 1016
Wijzigen -
Ruw KCUB 180553Z AUTO 00000KT 10SM CLR 17/13 A3002 RMK AO2 SLP163 T01720133 10283 20172 50000

VFR

18.3°C / 12.8°C

[Meer]
Wind variable 0kt
Zicht >10km
Weer -
Wolken Clear
Luchtdruk 1016
Wijzigen -
Ruw KCUB 180453Z AUTO 00000KT 10SM CLR 18/13 A3003 RMK AO2 SLP166 T01830128 403060183

VFR

19.4°C / 12.8°C

[Meer]
Wind variable 0kt
Zicht >10km
Weer -
Wolken Clear
Luchtdruk 1016
Wijzigen -
Ruw KCUB 180353Z AUTO 00000KT 10SM CLR 19/13 A3003 RMK AO2 SLP167 T01940128

VFR

20.6°C / 12.2°C

[Meer]
Wind variable 0kt
Zicht >10km
Weer -
Wolken Clear
Luchtdruk 1016
Wijzigen -
Ruw KCUB 180253Z AUTO 00000KT 10SM CLR 21/12 A3002 RMK AO2 SLP162 T02060122 53017

VFR

21.7°C / 12.2°C

[Meer]
Wind variable 0kt
Zicht >10km
Weer -
Wolken Clear
Luchtdruk 1015
Wijzigen -
Ruw KCUB 180153Z AUTO 00000KT 10SM CLR 22/12 A2999 RMK AO2 SLP154 T02170122

VFR

23.9°C / 11.1°C

[Meer]
Wind variable 0kt
Zicht >10km
Weer -
Wolken Clear
Luchtdruk 1014
Wijzigen -
Ruw KCUB 180053Z AUTO 00000KT 10SM CLR 24/11 A2997 RMK AO2 SLP148 T02390111

TAF voor South Carolina (KCUB)

From till


From till Wind 180º 7kt. Visibility 10km or more. Sky Clear.
From till Wind variable 4kt. Visibility 10km or more. Scattered Clouds 25000ft.
From till Wind 250º 10kt. Gust 18kt. Visibility 10km or more. Scattered Clouds 6000ft. Scattered Clouds 25000ft.

Ruw: KCUB 182335Z 1900/1924 18007KT P6SM SKC FM190300 VRB04KT P6SM SCT250 FM191500 25010G18KT P6SM SCT060 SCT250

Radar en neerslag nowcast voor South Carolina

Motregen
Licht
Matig
Zwaar
Zeer zwaar
Hagel

De locatiemarkering is op South Carolina geplaatst . Deze animation toont de neerslag radar van het afgelopen uur, maar ook de 1h verwachting. Motregen of lichte sneeuwval kan onzichtbaar zijn voor de radar. De neerslagintensiteit wordt met kleuren weergegeven, van lichtblauw tot oranje.

Huidige satellietbeelden voor South Carolina, Verenigde Staten

De locatiemarkering is op South Carolina geplaatst. [Meer]

Het realtime satellietbeeld combineert zichtbaar licht overdag met infraroodstraling 's nachts. 's Nachts is het beeld niet donker, omdat infraroodstraling temperatuurverschillen kan waarnemen. Helaas zijn lage wolken en mist moeilijk te onderscheiden van grondtemperaturen en kunnen dus 's nachts bijna onzichtbaar zijn. Meteosat-satellietbeelden voor Europa worden elke 5 minuten in real time bijgewerkt. De beelden van GOES-16/GOES-17 (Noord- en Zuid-Amerika) en Himawari (Azië) worden om de 10 minuten bijgewerkt.

Terug naar boven